createdAt,value
2023-04-05T00:00:40.737Z,2.74
2023-04-05T00:03:10.830Z,3.17
2023-04-05T00:05:41.371Z,3.08
2023-04-05T00:08:18.529Z,3.31
2023-04-05T00:10:48.244Z,3.37
2023-04-05T00:13:17.959Z,3.40
2023-04-05T00:15:47.860Z,3.71
2023-04-05T00:18:22.444Z,3.71
2023-04-05T00:20:52.734Z,3.88
2023-04-05T00:23:26.740Z,3.91
2023-04-05T00:25:56.452Z,3.81
2023-04-05T00:28:26.340Z,3.72
2023-04-05T00:30:56.149Z,3.35
2023-04-05T00:33:25.858Z,3.65
2023-04-05T00:35:55.922Z,3.74
2023-04-05T00:38:28.286Z,3.79
2023-04-05T00:40:58.014Z,3.76
2023-04-05T00:43:27.802Z,3.75
2023-04-05T00:45:57.783Z,3.74
2023-04-05T00:48:27.831Z,3.58
2023-04-05T00:50:58.003Z,3.70
2023-04-05T00:53:31.893Z,3.64
2023-04-05T00:56:01.646Z,3.62
2023-04-05T00:58:32.098Z,3.26
2023-04-05T01:01:07.641Z,3.42
2023-04-05T01:03:39.059Z,3.53
2023-04-05T01:06:20.175Z,3.45
2023-04-05T01:09:03.566Z,3.55
2023-04-05T01:11:35.109Z,3.55
2023-04-05T01:14:05.355Z,3.50
2023-04-05T01:16:35.107Z,3.43
2023-04-05T01:19:05.028Z,3.52
2023-04-05T01:22:14.468Z,3.34
2023-04-05T01:25:06.917Z,3.31
2023-04-05T01:27:58.997Z,3.25
2023-04-05T01:30:37.934Z,3.34
2023-04-05T01:33:17.332Z,2.92
2023-04-05T01:35:53.954Z,2.95
2023-04-05T01:38:28.105Z,3.10
2023-04-05T01:41:00.838Z,3.09
2023-04-05T01:43:32.080Z,2.63
2023-04-05T01:46:06.638Z,3.04
2023-04-05T01:48:38.250Z,2.75
2023-04-05T01:51:11.637Z,2.52
2023-04-05T01:53:44.865Z,2.77
2023-04-05T01:56:18.571Z,2.61
2023-04-05T01:58:49.817Z,2.67
2023-04-05T02:01:26.723Z,2.69
2023-04-05T02:04:01.000Z,2.47
2023-04-05T02:06:34.189Z,2.37
2023-04-05T02:09:07.677Z,2.87
2023-04-05T02:11:40.097Z,2.55
2023-04-05T02:14:12.058Z,2.72
2023-04-05T02:16:47.341Z,2.86
2023-04-05T02:19:23.729Z,2.49
2023-04-05T02:21:56.902Z,2.75
2023-04-05T02:24:29.633Z,2.74
2023-04-05T02:27:02.952Z,2.75
2023-04-05T02:29:37.417Z,2.83
2023-04-05T02:32:13.896Z,2.81
2023-04-05T02:34:47.272Z,2.75
2023-04-05T02:37:20.990Z,2.37
2023-04-05T02:39:55.956Z,2.32
2023-04-05T04:00:57.755Z,1.86
2023-04-05T05:09:57.393Z,0.80
2023-04-05T05:13:15.370Z,1.02
2023-04-05T05:16:22.768Z,1.79
2023-04-05T05:19:28.662Z,0.61
2023-04-05T05:22:57.765Z,0.70
2023-04-05T05:26:08.134Z,1.05
2023-04-05T05:29:26.957Z,1.21
2023-04-05T05:32:31.391Z,2.51
2023-04-05T05:35:14.981Z,1.34
2023-04-05T05:37:47.869Z,2.61
2023-04-05T05:40:17.623Z,2.80
2023-04-05T05:42:49.978Z,2.92
2023-04-05T05:45:19.807Z,3.00
2023-04-05T05:47:49.709Z,3.37
2023-04-05T05:50:20.825Z,3.58
2023-04-05T05:52:50.781Z,3.58
2023-04-05T05:55:20.800Z,3.39
2023-04-05T05:57:53.270Z,3.81
2023-04-05T06:00:24.137Z,3.83
2023-04-05T06:02:56.188Z,3.87
2023-04-05T06:05:29.999Z,3.72
2023-04-05T06:07:59.997Z,3.95
2023-04-05T06:10:29.798Z,3.91
2023-04-05T06:13:02.420Z,3.84
2023-04-05T06:15:33.061Z,3.34
2023-04-05T06:18:03.075Z,3.68
2023-04-05T06:20:32.958Z,3.54
2023-04-05T06:23:03.276Z,3.19
2023-04-05T06:25:33.317Z,3.06
2023-04-05T06:28:06.332Z,3.45
2023-04-05T06:30:37.154Z,3.13
2023-04-05T06:33:07.319Z,2.98
2023-04-05T06:35:37.406Z,2.95
2023-04-05T06:38:07.421Z,3.42
2023-04-05T06:40:37.219Z,3.31
2023-04-05T06:43:10.798Z,3.50
2023-04-05T06:45:40.606Z,3.58
2023-04-05T06:48:11.163Z,3.72
2023-04-05T06:50:41.315Z,3.83
2023-04-05T06:53:11.792Z,3.91
2023-04-05T06:55:42.661Z,3.68
2023-04-05T06:58:15.143Z,3.80
2023-04-05T07:00:44.953Z,3.58
2023-04-05T07:03:14.738Z,4.02
2023-04-05T07:05:44.642Z,3.85
2023-04-05T07:08:14.341Z,3.95
2023-04-05T07:10:44.249Z,4.19
2023-04-05T07:13:17.232Z,4.32
2023-04-05T07:15:47.317Z,4.42
2023-04-05T07:18:17.713Z,4.15
2023-04-05T07:20:50.658Z,4.58
2023-04-05T07:23:21.844Z,4.47
2023-04-05T07:25:52.849Z,4.59
2023-04-05T07:28:25.229Z,4.75
2023-04-05T07:30:55.146Z,4.78
2023-04-05T07:33:25.054Z,4.89
2023-04-05T07:35:57.039Z,5.13
2023-04-05T07:38:27.215Z,5.08
2023-04-05T07:40:57.009Z,5.18
2023-04-05T07:43:29.392Z,5.41
2023-04-05T07:46:04.989Z,5.31
2023-04-05T07:48:35.008Z,5.63
2023-04-05T07:51:08.838Z,5.70
2023-04-05T07:53:39.870Z,5.89
2023-04-05T07:56:10.941Z,5.58
2023-04-05T07:58:43.508Z,5.93
2023-04-05T08:01:14.161Z,6.14
2023-04-05T08:03:44.187Z,6.20
2023-04-05T08:06:17.844Z,6.29
2023-04-05T08:08:50.125Z,6.36
2023-04-05T08:11:22.407Z,6.47
2023-04-05T08:13:54.958Z,6.65
2023-04-05T08:16:24.758Z,6.64
2023-04-05T08:18:54.566Z,6.77
2023-04-05T08:21:26.731Z,6.77
2023-04-05T08:23:56.489Z,6.66
2023-04-05T08:26:26.787Z,6.82
2023-04-05T08:28:59.119Z,6.84
2023-04-05T08:31:29.537Z,6.96
2023-04-05T08:33:59.325Z,6.99
2023-04-05T08:36:29.100Z,7.00
2023-04-05T08:38:59.777Z,6.86
2023-04-05T08:41:37.024Z,7.01
2023-04-05T08:44:13.746Z,7.12
2023-04-05T08:46:46.964Z,6.97
2023-04-05T08:49:16.682Z,7.22
2023-04-05T08:51:46.501Z,6.59
2023-04-05T08:54:16.295Z,7.20
2023-04-05T08:56:49.739Z,7.39
2023-04-05T08:59:24.853Z,7.30
2023-04-05T09:01:55.339Z,7.31
2023-04-05T09:04:27.426Z,7.46
2023-04-05T09:07:00.586Z,7.73
2023-04-05T09:09:35.716Z,7.72
2023-04-05T09:12:06.833Z,7.83
2023-04-05T09:14:40.924Z,8.04
2023-04-05T09:17:11.217Z,8.07
2023-04-05T09:19:41.120Z,8.19
2023-04-05T09:22:11.866Z,8.28
2023-04-05T09:24:45.611Z,8.40
2023-04-05T09:27:18.051Z,8.44
2023-04-05T09:29:54.194Z,8.58
2023-04-05T09:32:29.561Z,8.68
2023-04-05T09:35:04.238Z,8.83
2023-04-05T09:37:35.983Z,8.91
2023-04-05T09:40:09.915Z,9.11
2023-04-05T09:42:47.686Z,9.13
2023-04-05T09:45:22.541Z,9.06
2023-04-05T09:48:00.425Z,8.77
2023-04-05T09:50:30.165Z,9.24
2023-04-05T09:53:10.560Z,9.57
2023-04-05T09:55:42.683Z,9.57
2023-04-05T09:58:15.835Z,9.77
2023-04-05T10:01:06.298Z,9.74
2023-04-05T10:03:50.258Z,9.94
2023-04-05T10:06:20.430Z,10.00
2023-04-05T10:08:50.905Z,9.95
2023-04-05T10:11:21.604Z,10.01
2023-04-05T10:13:52.941Z,9.72
2023-04-05T10:16:29.327Z,9.72
2023-04-05T10:18:59.203Z,9.84
2023-04-05T10:21:32.688Z,9.99
2023-04-05T10:24:11.679Z,10.07
2023-04-05T10:26:47.521Z,10.16
2023-04-05T10:29:27.328Z,10.32
2023-04-05T10:32:10.955Z,10.25
2023-04-05T10:34:46.185Z,10.31
2023-04-05T10:37:26.207Z,10.24
2023-04-05T10:39:58.031Z,10.20
2023-04-05T10:42:31.196Z,10.08
2023-04-05T10:45:04.971Z,10.03
2023-04-05T10:47:45.371Z,10.04
2023-04-05T10:50:22.994Z,9.72
2023-04-05T10:52:54.067Z,9.87
2023-04-05T10:55:24.224Z,9.86
2023-04-05T10:57:54.649Z,9.86
2023-04-05T11:00:27.374Z,9.75
2023-04-05T11:02:59.958Z,9.92
2023-04-05T11:05:35.060Z,9.90
2023-04-05T11:08:09.240Z,9.58
2023-04-05T11:10:40.958Z,9.65
2023-04-05T11:13:12.600Z,9.74
2023-04-05T11:15:42.630Z,9.74
2023-04-05T11:18:24.025Z,9.66
2023-04-05T11:20:56.370Z,9.62
2023-04-05T11:23:27.590Z,9.60
2023-04-05T11:26:00.166Z,9.46
2023-04-05T11:28:37.881Z,9.52
2023-04-05T11:31:16.932Z,9.43
2023-04-05T11:34:10.247Z,9.45
2023-04-05T11:36:42.217Z,9.43
2023-04-05T11:39:30.945Z,9.57
2023-04-05T11:42:05.845Z,9.66
2023-04-05T11:44:48.188Z,9.78
2023-04-05T11:47:21.965Z,9.86
2023-04-05T11:49:55.147Z,9.85
2023-04-05T11:52:24.906Z,9.66
2023-04-05T11:54:55.288Z,9.92
2023-04-05T11:57:26.293Z,9.92
2023-04-05T11:59:56.915Z,10.09
2023-04-05T12:02:26.947Z,10.25
2023-04-05T12:05:01.198Z,10.23
2023-04-05T12:07:37.158Z,10.14
2023-04-05T12:10:11.925Z,10.25
2023-04-05T12:12:48.190Z,9.90
2023-04-05T12:15:20.094Z,9.01
2023-04-05T12:17:53.354Z,9.82
2023-04-05T12:20:27.362Z,9.95
2023-04-05T12:22:59.035Z,10.12
2023-04-05T12:25:29.620Z,9.94
2023-04-05T12:27:59.438Z,10.02
2023-04-05T12:30:36.592Z,10.07
2023-04-05T12:33:11.700Z,10.17
2023-04-05T12:35:44.378Z,10.18
2023-04-05T12:38:17.824Z,10.07
2023-04-05T12:40:47.620Z,10.22
2023-04-05T12:43:22.189Z,10.21
2023-04-05T12:45:54.629Z,10.29
2023-04-05T12:48:27.108Z,10.42
2023-04-05T12:50:59.431Z,10.61
2023-04-05T12:53:30.145Z,10.90
2023-04-05T12:56:02.052Z,10.94
2023-04-05T12:58:38.091Z,10.72
2023-04-05T13:01:08.233Z,10.53
2023-04-05T13:03:38.044Z,10.51
2023-04-05T13:06:11.024Z,10.67
2023-04-05T13:08:40.736Z,11.00
2023-04-05T13:11:10.626Z,11.07
2023-04-05T13:13:40.363Z,11.07
2023-04-05T13:16:10.614Z,11.00
2023-04-05T13:18:40.680Z,10.86
2023-04-05T13:21:13.503Z,10.98
2023-04-05T13:23:46.751Z,10.95
2023-04-05T13:26:34.875Z,11.53
2023-04-05T13:29:05.621Z,11.51
2023-04-05T13:31:44.213Z,10.39
2023-04-05T13:34:23.458Z,11.52
2023-04-05T13:37:06.238Z,9.68
2023-04-05T13:39:49.171Z,10.80
2023-04-05T13:42:23.002Z,9.92
2023-04-05T13:45:00.411Z,11.15
2023-04-05T13:47:36.551Z,10.48
2023-04-05T13:50:30.883Z,9.93
2023-04-05T13:53:06.976Z,11.04
2023-04-05T13:56:59.701Z,9.59
2023-04-05T14:11:10.545Z,9.96
2023-04-05T14:13:40.700Z,10.77
2023-04-05T14:16:10.941Z,10.93
2023-04-05T14:18:41.197Z,10.89
2023-04-05T14:21:11.627Z,11.20
2023-04-05T14:23:41.965Z,11.18
2023-04-05T14:26:15.718Z,11.11
2023-04-05T14:28:46.657Z,11.48
2023-04-05T14:31:19.450Z,11.42
2023-04-05T14:33:50.446Z,11.52
2023-04-05T14:36:21.708Z,11.05
2023-04-05T14:38:52.154Z,11.34
2023-04-05T14:41:25.595Z,11.07
2023-04-05T14:43:58.652Z,11.48
2023-04-05T14:46:29.065Z,10.99
2023-04-05T14:48:59.027Z,11.38
2023-04-05T14:51:29.800Z,11.42
2023-04-05T14:53:59.685Z,11.44
2023-04-05T14:56:32.269Z,11.71
2023-04-05T14:59:02.716Z,11.83
2023-04-05T15:01:32.651Z,11.59
2023-04-05T15:04:02.443Z,11.78
2023-04-05T15:06:32.446Z,11.88
2023-04-05T15:09:02.400Z,11.91
2023-04-05T15:11:35.831Z,11.96
2023-04-05T15:14:05.667Z,11.71
2023-04-05T15:16:35.643Z,11.78
2023-04-05T15:19:05.473Z,11.64
2023-04-05T15:21:35.396Z,11.43
2023-04-05T15:24:05.159Z,11.36
2023-04-05T15:26:37.448Z,11.44
2023-04-05T15:29:07.223Z,11.35
2023-04-05T15:31:37.308Z,11.49
2023-04-05T15:34:08.366Z,11.39
2023-04-05T15:36:38.652Z,11.11
2023-04-05T15:39:08.453Z,10.96
2023-04-05T15:41:41.200Z,11.17
2023-04-05T15:44:11.060Z,11.25
2023-04-05T15:46:41.042Z,11.44
2023-04-05T15:49:14.030Z,11.54
2023-04-05T15:51:45.202Z,11.89
2023-04-05T15:54:19.013Z,12.01
2023-04-05T15:56:51.453Z,11.56
2023-04-05T15:59:21.499Z,11.09
2023-04-05T16:01:51.347Z,10.90
2023-04-05T16:04:21.279Z,11.29
2023-04-05T16:06:51.162Z,10.75
2023-04-05T16:09:20.945Z,11.16
2023-04-05T16:11:53.293Z,11.64
2023-04-05T16:14:23.043Z,12.17
2023-04-05T16:16:54.282Z,12.57
2023-04-05T16:19:24.668Z,12.47
2023-04-05T16:21:54.778Z,11.90
2023-04-05T16:24:24.541Z,11.68
2023-04-05T16:26:57.033Z,11.48
2023-04-05T16:29:27.395Z,11.26
2023-04-05T16:31:57.247Z,10.97
2023-04-05T16:34:27.077Z,11.13
2023-04-05T16:36:56.812Z,11.13
2023-04-05T16:39:26.680Z,10.76
2023-04-05T16:41:59.033Z,10.99
2023-04-05T16:44:31.694Z,10.92
2023-04-05T16:47:02.019Z,11.02
2023-04-05T16:49:31.764Z,11.08
2023-04-05T16:52:01.560Z,10.89
2023-04-05T16:54:31.685Z,10.98
2023-04-05T16:57:04.167Z,10.77
2023-04-05T16:59:33.934Z,10.77
2023-04-05T17:02:03.766Z,10.76
2023-04-05T17:04:33.686Z,10.76
2023-04-05T17:07:03.430Z,10.61
2023-04-05T17:09:33.416Z,10.15
2023-04-05T17:12:06.852Z,10.23
2023-04-05T17:14:36.619Z,10.18
2023-04-05T17:17:06.353Z,10.34
2023-04-05T17:19:36.573Z,9.99
2023-04-05T17:22:06.406Z,10.34
2023-04-05T17:24:37.062Z,9.87
2023-04-05T17:27:09.436Z,10.33
2023-04-05T17:29:39.212Z,10.18
2023-04-05T17:32:09.689Z,10.18
2023-04-05T17:34:39.419Z,10.11
2023-04-05T17:37:09.176Z,10.10
2023-04-05T17:39:38.944Z,10.05
2023-04-05T17:42:11.280Z,10.00
2023-04-05T17:44:41.560Z,9.89
2023-04-05T17:47:11.318Z,9.82
2023-04-05T17:49:41.132Z,9.81
2023-04-05T17:52:12.300Z,9.74
2023-04-05T17:54:42.247Z,9.76
2023-04-05T17:57:15.683Z,9.80
2023-04-05T17:59:45.971Z,9.58
2023-04-05T18:02:15.846Z,9.64
2023-04-05T18:04:45.656Z,9.68
2023-04-05T18:07:15.527Z,9.62
2023-04-05T18:09:45.287Z,9.68
2023-04-05T18:12:17.587Z,9.65
2023-04-05T18:14:47.394Z,9.59
2023-04-05T18:17:18.068Z,9.65
2023-04-05T18:19:47.805Z,9.62
2023-04-05T18:22:17.605Z,9.32
2023-04-05T18:24:47.392Z,9.28
2023-04-05T18:27:19.835Z,9.43
2023-04-05T18:29:49.548Z,9.36
2023-04-05T18:32:19.478Z,9.25
2023-04-05T18:34:49.436Z,9.34
2023-04-05T18:37:19.157Z,9.14
2023-04-05T18:39:49.070Z,9.15
2023-04-05T18:42:21.406Z,9.02
2023-04-05T18:44:51.246Z,9.15
2023-04-05T18:47:21.120Z,9.09
2023-04-05T18:49:51.043Z,8.99
2023-04-05T18:52:23.970Z,8.97
2023-04-05T18:54:53.751Z,8.97
2023-04-05T18:57:26.686Z,9.03
2023-04-05T18:59:56.427Z,8.92
2023-04-05T19:02:26.304Z,8.81
2023-04-05T19:04:56.274Z,8.69
2023-04-05T19:07:26.150Z,8.74
2023-04-05T19:09:55.980Z,8.71
2023-04-05T19:12:28.430Z,7.71
2023-04-05T19:14:58.195Z,8.47
2023-04-05T19:17:27.941Z,8.16
2023-04-05T19:19:57.713Z,8.09
2023-04-05T19:22:27.482Z,7.76
2023-04-05T19:24:57.245Z,7.76
2023-04-05T19:27:30.999Z,7.64
2023-04-05T19:30:00.872Z,7.56
2023-04-05T19:32:30.609Z,7.70
2023-04-05T19:35:01.494Z,7.49
2023-04-05T19:37:31.988Z,7.57
2023-04-05T19:40:01.732Z,7.53
2023-04-05T19:42:34.781Z,7.21
2023-04-05T19:45:04.796Z,7.32
2023-04-05T19:47:34.593Z,7.58
2023-04-05T19:50:04.384Z,7.44
2023-04-05T19:52:38.685Z,7.52
2023-04-05T19:55:29.886Z,7.52
2023-04-05T19:58:03.426Z,7.32
2023-04-05T20:00:38.880Z,7.37
2023-04-05T20:03:30.503Z,7.22
2023-04-05T20:06:14.958Z,7.13
2023-04-05T20:08:46.709Z,7.03
2023-04-05T20:11:18.281Z,7.03
2023-04-05T20:13:52.468Z,6.76
2023-04-05T20:16:28.462Z,6.86
2023-04-05T20:19:01.039Z,7.04
2023-04-05T20:21:31.220Z,7.09
2023-04-05T20:24:01.423Z,7.05
2023-04-05T20:26:33.641Z,7.00
2023-04-05T20:29:10.197Z,6.90
2023-04-05T20:31:40.582Z,6.71
2023-04-05T20:34:14.351Z,6.67
2023-04-05T20:36:50.315Z,6.73
2023-04-05T20:39:20.210Z,6.62
2023-04-05T20:41:50.036Z,6.53
2023-04-05T20:44:22.690Z,6.32
2023-04-05T20:46:54.061Z,6.08
2023-04-05T20:49:24.325Z,6.41
2023-04-05T20:51:55.018Z,6.24
2023-04-05T20:54:24.773Z,6.11
2023-04-05T20:56:54.559Z,6.26
2023-04-05T20:59:27.520Z,6.37
2023-04-05T21:01:57.509Z,6.38
2023-04-05T21:04:29.531Z,6.37
2023-04-05T21:06:59.903Z,6.18
2023-04-05T21:09:30.268Z,6.28
2023-04-05T21:12:00.630Z,6.00
2023-04-05T21:14:33.059Z,6.00
2023-04-05T21:17:03.613Z,6.14
2023-04-05T21:19:34.392Z,6.06
2023-04-05T21:22:04.191Z,6.04
2023-04-05T21:24:34.072Z,5.82
2023-04-05T21:27:04.052Z,5.78
2023-04-05T21:29:36.400Z,5.77
2023-04-05T21:32:06.415Z,5.37
2023-04-05T21:34:36.291Z,5.41
2023-04-05T21:37:06.074Z,5.52
2023-04-05T21:39:35.930Z,5.74
2023-04-05T21:42:05.812Z,5.60
2023-04-05T21:44:38.142Z,5.61
2023-04-05T21:47:08.117Z,5.58
2023-04-05T21:49:37.987Z,5.53
2023-04-05T21:52:08.040Z,5.16
2023-04-05T21:54:37.867Z,5.42
2023-04-05T21:57:07.648Z,5.49
2023-04-05T21:59:40.072Z,5.42
2023-04-05T22:02:12.350Z,5.41
2023-04-05T22:04:42.235Z,5.99
2023-04-05T22:07:12.491Z,5.84
2023-04-05T22:09:42.321Z,5.46
2023-04-05T22:12:12.087Z,5.36
2023-04-05T22:14:44.479Z,5.30
2023-04-05T22:17:14.244Z,4.88
2023-04-05T22:19:44.261Z,4.82
2023-04-05T22:22:15.129Z,5.11
2023-04-05T22:24:45.548Z,4.94
2023-04-05T22:27:15.550Z,4.98
2023-04-05T22:29:49.091Z,5.04
2023-04-05T22:32:18.870Z,5.01
2023-04-05T22:34:48.888Z,4.82
2023-04-05T22:37:18.665Z,4.84
2023-04-05T22:39:48.445Z,5.06
2023-04-05T22:42:18.260Z,4.60
2023-04-05T22:44:50.795Z,4.90
2023-04-05T22:47:21.459Z,4.82
2023-04-05T22:49:52.078Z,4.61
2023-04-05T22:52:21.884Z,4.73
2023-04-05T22:54:51.750Z,4.64
2023-04-05T22:57:21.553Z,4.74
2023-04-05T22:59:53.883Z,4.85
2023-04-05T23:02:24.739Z,4.82
2023-04-05T23:04:54.556Z,4.64
2023-04-05T23:07:24.481Z,4.71
2023-04-05T23:09:54.270Z,4.62
2023-04-05T23:12:24.026Z,4.35
2023-04-05T23:14:58.296Z,4.45
2023-04-05T23:17:28.235Z,3.56
2023-04-05T23:19:58.020Z,4.49
2023-04-05T23:22:27.812Z,4.31
2023-04-05T23:25:00.798Z,4.33
2023-04-05T23:27:30.882Z,4.13
2023-04-05T23:30:03.354Z,3.99
2023-04-05T23:32:33.171Z,4.21
2023-04-05T23:35:02.938Z,4.11
2023-04-05T23:37:32.697Z,4.13
2023-04-05T23:40:02.441Z,4.08
2023-04-05T23:42:32.567Z,3.23
2023-04-05T23:45:09.004Z,4.39
2023-04-05T23:47:40.132Z,4.00
2023-04-05T23:50:11.895Z,4.09
2023-04-05T23:52:41.667Z,3.82
2023-04-05T23:55:12.124Z,4.18
2023-04-05T23:57:41.895Z,4.14
